createdAt,value
2022-07-25T00:00:30.970Z,98551.28
2022-07-25T00:05:37.775Z,98525.84
2022-07-25T00:10:40.390Z,98467.88
2022-07-25T00:15:42.738Z,98527.38
2022-07-25T00:20:45.147Z,98481.19
2022-07-25T00:25:47.439Z,98549.28
2022-07-25T00:30:50.348Z,98522.94
2022-07-25T00:35:52.644Z,98526.72
2022-07-25T00:40:55.890Z,98520.88
2022-07-25T00:45:59.267Z,98466.47
2022-07-25T00:51:01.949Z,98463.75
2022-07-25T00:56:05.953Z,98499.25
2022-07-25T01:01:08.296Z,98325.03
2022-07-25T01:06:10.631Z,98532.84
2022-07-25T01:11:13.092Z,98406.09
2022-07-25T01:16:15.583Z,98537.78
2022-07-25T01:21:17.916Z,98451.19
2022-07-25T01:26:20.185Z,98507.31
2022-07-25T01:31:22.503Z,98525.28
2022-07-25T01:36:24.839Z,98532.59
2022-07-25T01:41:29.170Z,98541.19
2022-07-25T01:46:31.553Z,98514.03
2022-07-25T01:51:33.905Z,98514.34
2022-07-25T01:56:36.282Z,98445.44
2022-07-25T02:01:39.170Z,98510.91
2022-07-25T02:06:44.249Z,98508.41
2022-07-25T02:11:46.580Z,98509.28
2022-07-25T02:16:48.934Z,98510.78
2022-07-25T02:21:51.501Z,98499.69
2022-07-25T02:26:53.774Z,98556.44
2022-07-25T02:31:56.249Z,98533.59
2022-07-25T02:36:58.602Z,98528.91
2022-07-25T02:42:00.900Z,98523.78
2022-07-25T02:47:03.457Z,98528.47
2022-07-25T02:52:05.729Z,98449.38
2022-07-25T02:57:08.026Z,98525.59
2022-07-25T03:02:10.892Z,98515.94
2022-07-25T03:07:13.234Z,98408.47
2022-07-25T03:12:15.603Z,98495.91
2022-07-25T03:17:18.437Z,98510.41
2022-07-25T03:22:21.627Z,98491.78
2022-07-25T03:27:23.965Z,98528.22
2022-07-25T03:32:26.305Z,98523.75
2022-07-25T03:37:28.666Z,98532.13
2022-07-25T03:42:35.494Z,98541.50
2022-07-25T03:47:38.186Z,98546.81
2022-07-25T03:52:40.774Z,98431.16
2022-07-25T03:57:43.467Z,98527.78
2022-07-25T04:02:45.846Z,98509.69
2022-07-25T04:07:48.219Z,98521.69
2022-07-25T04:12:50.732Z,98516.75
2022-07-25T04:17:53.004Z,98508.13
2022-07-25T04:22:55.993Z,98311.78
2022-07-25T04:27:58.403Z,98474.38
2022-07-25T04:33:00.678Z,98520.00
2022-07-25T04:38:02.984Z,98487.47
2022-07-25T04:43:05.527Z,98463.47
2022-07-25T04:48:08.035Z,98535.16
2022-07-25T04:53:10.392Z,98481.78
2022-07-25T04:58:12.695Z,98499.88
2022-07-25T05:03:14.949Z,98520.59
2022-07-25T05:08:17.398Z,98470.59
2022-07-25T05:13:20.185Z,98510.72
2022-07-25T05:18:22.583Z,98516.84
2022-07-25T05:23:24.873Z,98489.53
2022-07-25T05:28:27.208Z,98408.06
2022-07-25T05:33:30.065Z,98491.19
2022-07-25T05:38:32.420Z,98469.72
2022-07-25T05:43:34.737Z,98488.03
2022-07-25T05:48:40.202Z,98506.41
2022-07-25T05:53:42.720Z,98498.22
2022-07-25T05:58:45.162Z,98444.63
2022-07-25T06:03:47.474Z,98439.19
2022-07-25T06:08:49.866Z,98459.31
2022-07-25T06:13:52.180Z,98501.97
2022-07-25T06:18:55.077Z,98407.13
2022-07-25T06:24:00.400Z,98380.31
2022-07-25T06:29:02.884Z,98464.47
2022-07-25T06:34:05.477Z,98472.69
2022-07-25T06:39:08.070Z,98465.13
2022-07-25T06:44:10.464Z,98371.41
2022-07-25T06:49:13.067Z,98490.38
2022-07-25T06:54:15.949Z,98457.31
2022-07-25T06:59:18.314Z,98404.25
2022-07-25T07:04:20.746Z,98385.38
2022-07-25T07:09:23.091Z,98466.25
2022-07-25T07:14:25.432Z,98443.97
2022-07-25T07:19:27.696Z,98495.50
2022-07-25T07:24:30.222Z,98491.75
2022-07-25T07:29:32.608Z,98442.13
2022-07-25T07:34:34.922Z,98485.47
2022-07-25T07:39:37.270Z,98490.00
2022-07-25T07:44:39.763Z,98481.34
2022-07-25T07:49:43.373Z,98514.16
2022-07-25T07:55:06.689Z,98478.19
2022-07-25T08:00:13.507Z,98488.19
2022-07-25T08:05:33.911Z,98458.25
2022-07-25T08:10:38.577Z,98460.91
2022-07-25T08:15:41.299Z,98523.03
2022-07-25T08:20:43.728Z,98501.28
2022-07-25T08:25:47.215Z,98473.03
2022-07-25T08:30:49.582Z,98475.16
2022-07-25T08:35:53.954Z,98419.94
2022-07-25T08:40:57.539Z,98485.25
2022-07-25T08:46:02.605Z,98545.59
2022-07-25T08:51:05.167Z,98482.28
2022-07-25T08:56:14.528Z,98478.13
2022-07-25T09:01:17.353Z,98500.22
2022-07-25T09:06:21.292Z,98530.94
2022-07-25T09:11:37.462Z,98502.44
2022-07-25T09:16:44.973Z,98457.91
2022-07-25T09:22:06.060Z,98502.38
2022-07-25T09:27:12.422Z,98511.41
2022-07-25T09:32:20.646Z,98529.69
2022-07-25T09:37:27.341Z,98469.25
2022-07-25T09:42:33.907Z,98521.34
2022-07-25T09:47:37.968Z,98520.75
2022-07-25T09:52:40.661Z,98491.88
2022-07-25T09:57:45.357Z,98486.56
2022-07-25T10:02:49.296Z,98521.09
2022-07-25T10:07:53.852Z,98511.09
2022-07-25T10:13:00.349Z,98498.75
2022-07-25T10:18:04.371Z,98434.22
2022-07-25T10:23:19.737Z,98479.94
2022-07-25T10:28:22.021Z,98465.72
2022-07-25T10:33:25.488Z,98501.50
2022-07-25T10:38:28.903Z,98478.94
2022-07-25T10:43:37.659Z,98457.06
2022-07-25T10:48:40.282Z,98496.78
2022-07-25T10:53:44.126Z,98496.44
2022-07-25T10:58:53.303Z,98477.72
2022-07-25T11:03:59.305Z,98491.00
2022-07-25T11:09:02.014Z,98466.91
2022-07-25T11:14:05.643Z,98469.56
2022-07-25T11:19:24.758Z,98502.16
2022-07-25T11:24:45.266Z,98467.50
2022-07-25T11:29:47.637Z,98468.31
2022-07-25T11:34:53.501Z,98464.41
2022-07-25T11:39:56.761Z,98431.91
2022-07-25T11:44:59.728Z,98435.94
2022-07-25T11:50:04.754Z,98449.66
2022-07-25T11:55:09.354Z,98495.03
2022-07-25T12:00:17.540Z,98490.41
2022-07-25T12:05:22.197Z,98463.28
2022-07-25T12:10:32.825Z,98491.53
2022-07-25T12:15:40.821Z,98482.75
2022-07-25T12:20:44.367Z,98412.22
2022-07-25T12:25:47.677Z,98444.50
2022-07-25T12:30:55.954Z,98454.53
2022-07-25T12:36:02.089Z,98427.94
2022-07-25T12:41:07.787Z,98438.34
2022-07-25T12:46:10.256Z,98401.91
2022-07-25T12:51:12.747Z,98402.66
2022-07-25T12:56:16.153Z,98454.41
2022-07-25T13:01:18.643Z,98395.16
2022-07-25T13:06:21.121Z,98426.19
2022-07-25T13:11:30.369Z,98373.88
2022-07-25T13:16:34.253Z,98288.41
2022-07-25T13:21:36.905Z,98382.06
2022-07-25T13:26:39.649Z,98437.28
2022-07-25T13:31:42.425Z,98457.72
2022-07-25T13:36:45.139Z,98438.00
2022-07-25T13:41:47.456Z,98414.66
2022-07-25T13:46:59.093Z,98452.81
2022-07-25T13:52:01.848Z,98416.69
2022-07-25T13:57:04.771Z,98464.03
2022-07-25T14:02:07.268Z,98424.44
2022-07-25T14:07:09.821Z,98391.59
2022-07-25T14:12:12.253Z,98428.94
2022-07-25T14:17:14.650Z,98435.66
2022-07-25T14:22:17.046Z,98420.59
2022-07-25T14:27:19.462Z,98303.25
2022-07-25T14:32:21.822Z,98322.19
2022-07-25T14:37:24.140Z,98377.53
2022-07-25T14:42:26.644Z,98448.06
2022-07-25T14:47:28.943Z,98422.19
2022-07-25T14:52:31.327Z,98482.28
2022-07-25T14:57:33.726Z,98423.31
2022-07-25T15:02:36.047Z,98338.75
2022-07-25T15:07:38.454Z,98420.13
2022-07-25T15:12:40.968Z,98322.34
2022-07-25T15:17:43.373Z,98324.06
2022-07-25T15:22:45.751Z,98461.19
2022-07-25T15:27:48.082Z,98400.91
2022-07-25T15:32:50.426Z,98472.25
2022-07-25T15:37:53.003Z,98464.78
2022-07-25T15:42:55.363Z,98424.41
2022-07-25T15:47:57.722Z,98462.34
2022-07-25T15:53:00.153Z,98479.47
2022-07-25T15:58:02.592Z,98343.69
2022-07-25T16:03:05.212Z,98472.00
2022-07-25T16:08:11.416Z,98473.22
2022-07-25T16:13:13.823Z,98512.63
2022-07-25T16:18:16.467Z,98498.88
2022-07-25T16:23:18.804Z,98530.25
2022-07-25T16:28:21.801Z,98495.47
2022-07-25T16:33:24.579Z,98488.84
2022-07-25T16:38:29.064Z,98534.00
2022-07-25T16:43:31.437Z,98526.53
2022-07-25T16:48:38.365Z,98544.03
2022-07-25T16:53:40.748Z,98515.69
2022-07-25T16:58:43.221Z,98499.81
2022-07-25T17:03:45.735Z,98538.94
2022-07-25T17:08:48.208Z,98540.94
2022-07-25T17:13:50.589Z,98562.25
2022-07-25T17:18:52.923Z,98574.25
2022-07-25T17:23:56.708Z,98552.16
2022-07-25T17:29:02.345Z,98552.16
2022-07-25T17:34:04.964Z,98586.56
2022-07-25T17:39:07.647Z,98540.44
2022-07-25T17:44:12.262Z,98544.81
2022-07-25T17:49:15.036Z,98543.78
2022-07-25T17:54:17.543Z,98574.81
2022-07-25T17:59:19.952Z,98590.22
2022-07-25T18:04:25.400Z,98523.72
2022-07-25T18:09:27.870Z,98569.50
2022-07-25T18:14:30.806Z,98586.28
2022-07-25T18:19:33.199Z,98553.91
2022-07-25T18:24:35.574Z,98550.78
2022-07-25T18:29:38.751Z,98560.69
2022-07-25T18:34:41.096Z,98508.88
2022-07-25T18:39:44.392Z,98557.88
2022-07-25T18:44:46.743Z,98549.16
2022-07-25T18:49:50.331Z,98582.47
2022-07-25T18:54:52.825Z,98550.41
2022-07-25T18:59:59.439Z,98527.13
2022-07-25T19:05:06.667Z,98526.78
2022-07-25T19:10:10.106Z,98576.31
2022-07-25T19:15:13.311Z,98508.66
2022-07-25T19:20:15.806Z,98495.38
2022-07-25T19:25:18.413Z,98585.09
2022-07-25T19:30:21.719Z,98564.19
2022-07-25T19:35:26.300Z,98585.97
2022-07-25T19:40:35.010Z,98575.13
2022-07-25T19:45:39.819Z,98528.63
2022-07-25T19:50:48.486Z,98578.72
2022-07-25T19:55:59.857Z,98586.72
2022-07-25T20:01:02.582Z,98592.97
2022-07-25T20:06:08.525Z,98593.91
2022-07-25T20:11:11.415Z,98550.44
2022-07-25T20:16:13.794Z,98600.19
2022-07-25T20:21:18.248Z,98596.81
2022-07-25T20:26:20.601Z,98574.06
2022-07-25T20:31:24.661Z,98566.09
2022-07-25T20:36:27.138Z,98582.53
2022-07-25T20:41:29.743Z,98610.47
2022-07-25T20:46:36.220Z,98600.19
2022-07-25T20:51:41.844Z,98655.84
2022-07-25T20:56:45.324Z,98636.88
2022-07-25T21:01:47.765Z,98587.50
2022-07-25T21:06:50.126Z,98510.25
2022-07-25T21:11:52.462Z,98609.00
2022-07-25T21:16:54.920Z,98619.19
2022-07-25T21:21:57.292Z,98567.88
2022-07-25T21:26:59.687Z,98593.88
2022-07-25T21:32:02.080Z,98555.44
2022-07-25T21:37:04.420Z,98600.13
2022-07-25T21:42:10.078Z,98583.72
2022-07-25T21:47:13.507Z,98627.44
2022-07-25T21:52:16.388Z,98605.28
2022-07-25T21:57:18.870Z,98596.34
2022-07-25T22:02:21.239Z,98606.97
2022-07-25T22:07:25.436Z,98597.97
2022-07-25T22:12:27.853Z,98543.94
2022-07-25T22:17:48.526Z,98594.13
2022-07-25T22:22:52.191Z,98613.44
2022-07-25T22:27:54.490Z,98590.63
2022-07-25T22:32:56.750Z,98648.13
2022-07-25T22:37:59.072Z,98622.59
2022-07-25T22:43:01.479Z,98596.97
2022-07-25T22:48:04.050Z,98591.81
2022-07-25T22:53:06.926Z,98619.66
2022-07-25T22:58:09.421Z,98592.06
2022-07-25T23:03:11.736Z,98614.44
2022-07-25T23:08:14.278Z,98622.13
2022-07-25T23:13:19.251Z,98596.44
2022-07-25T23:18:21.577Z,98660.38
2022-07-25T23:23:23.924Z,98628.13
2022-07-25T23:28:26.276Z,98606.59
2022-07-25T23:33:28.613Z,98625.56
2022-07-25T23:38:31.590Z,98621.44
2022-07-25T23:43:48.281Z,98607.34
2022-07-25T23:48:56.727Z,98611.25
2022-07-25T23:53:59.722Z,98579.88
2022-07-25T23:59:02.086Z,98593.47
